Time;durP1;ratioP1;P1;durP2;ratioP2;P2;SDS_P1;SDS_P2;PMS_P1;PMS_P2;Temp;Humidity;BMP_temperature;BMP_pressure;BME280_temperature;BME280_humidity;BME280_pressure;Samples;Min_cycle;Max_cycle;Signal;HPM_P1;HPM_P2
2021/05/21 00:02:15;;;;;;;3.60;1.30;;;12.80;71.30;;;;;;5108923;28;20087;-60
2021/05/21 00:04:41;;;;;;;3.40;1.30;;;12.80;71.60;;;;;;5109199;28;20341;-60
2021/05/21 00:07:07;;;;;;;2.47;1.50;;;12.80;71.80;;;;;;5109161;28;20202;-61
2021/05/21 00:09:33;;;;;;;3.63;1.23;;;12.80;71.80;;;;;;5109089;28;20297;-60
2021/05/21 00:12:00;;;;;;;4.23;1.40;;;12.80;71.60;;;;;;5108917;28;20311;-61
2021/05/21 00:14:25;;;;;;;3.20;1.20;;;12.80;71.60;;;;;;5109055;28;20313;-61
2021/05/21 00:16:53;;;;;;;4.10;1.20;;;12.80;71.60;;;;;;5108818;28;20067;-61
2021/05/21 00:19:18;;;;;;;1.83;1.07;;;12.80;71.90;;;;;;5108716;28;20111;-61
2021/05/21 00:21:47;;;;;;;3.50;1.20;;;12.80;72.20;;;;;;5108739;28;20293;-61
2021/05/21 00:24:12;;;;;;;5.23;1.27;;;12.80;72.50;;;;;;5109113;28;20357;-61
2021/05/21 00:26:38;;;;;;;3.13;1.20;;;12.80;71.60;;;;;;5108894;28;20052;-61
2021/05/21 00:29:06;;;;;;;4.13;1.23;;;12.90;71.90;;;;;;5108436;28;20043;-60
2021/05/21 00:31:33;;;;;;;2.90;1.27;;;13.00;72.10;;;;;;5108725;28;20047;-61
2021/05/21 00:34:00;;;;;;;1.73;1.10;;;12.90;71.20;;;;;;5108700;28;20369;-60
2021/05/21 00:36:26;;;;;;;2.57;1.53;;;12.90;71.90;;;;;;5108512;28;20425;-60
2021/05/21 00:38:52;;;;;;;2.87;1.27;;;12.90;71.70;;;;;;5108869;28;20663;-60
2021/05/21 00:41:21;;;;;;;2.20;1.00;;;12.90;72.10;;;;;;5108661;28;20373;-60
2021/05/21 00:43:47;;;;;;;3.63;1.00;;;12.90;72.50;;;;;;5108399;28;20155;-60
2021/05/21 00:46:13;;;;;;;7.60;1.30;;;12.90;72.50;;;;;;5108156;28;20343;-61
2021/05/21 00:48:38;;;;;;;3.60;1.20;;;12.90;72.60;;;;;;5108496;28;20043;-60
2021/05/21 00:51:04;;;;;;;4.43;1.23;;;12.90;72.40;;;;;;5108124;28;20443;-60
2021/05/21 00:53:31;;;;;;;2.87;1.40;;;12.90;72.40;;;;;;5108366;28;20375;-60
2021/05/21 00:56:01;;;;;;;8.33;1.57;;;13.00;72.90;;;;;;5108088;28;20487;-60
2021/05/21 00:58:27;;;;;;;3.63;1.00;;;13.00;72.90;;;;;;5108006;28;20289;-60
2021/05/21 01:00:54;;;;;;;3.47;1.13;;;12.90;73.20;;;;;;5108250;28;20301;-60
2021/05/21 01:03:20;;;;;;;4.50;1.00;;;13.00;72.90;;;;;;5089641;28;20632;-60
2021/05/21 01:05:46;;;;;;;5.60;1.20;;;13.00;73.00;;;;;;5108215;28;20664;-60
2021/05/21 01:08:14;;;;;;;5.20;1.20;;;13.00;73.00;;;;;;5108234;28;20302;-61
2021/05/21 01:10:41;;;;;;;4.47;1.20;;;13.00;73.00;;;;;;5108231;28;20451;-60
2021/05/21 01:13:06;;;;;;;2.07;1.00;;;13.00;74.30;;;;;;5107969;28;20337;-60
2021/05/21 01:15:40;;;;;;;4.37;1.40;;;13.00;73.40;;;;;;5108032;28;20386;-60
2021/05/21 01:18:09;;;;;;;5.35;1.15;;;13.00;73.60;;;;;;5108386;28;20383;-62
2021/05/21 01:20:36;;;;;;;4.67;1.40;;;13.00;73.70;;;;;;5107906;28;20055;-62
2021/05/21 01:23:06;;;;;;;4.03;1.13;;;13.00;73.80;;;;;;5108000;28;20320;-60
2021/05/21 01:25:33;;;;;;;2.60;1.13;;;13.00;73.80;;;;;;5108062;28;20305;-60
2021/05/21 01:28:01;;;;;;;6.67;1.70;;;12.90;74.00;;;;;;5107703;28;20317;-60
2021/05/21 01:30:28;;;;;;;3.77;1.30;;;13.00;74.10;;;;;;5108220;28;20609;-60
2021/05/21 01:32:55;;;;;;;1.87;1.03;;;13.00;73.90;;;;;;5107943;28;20300;-59
2021/05/21 01:35:21;;;;;;;3.00;1.00;;;12.90;74.50;;;;;;5108195;28;20301;-60
2021/05/21 01:37:49;;;;;;;1.17;0.90;;;13.00;74.00;;;;;;5107659;28;20389;-60
2021/05/21 01:40:16;;;;;;;5.70;1.40;;;13.00;74.20;;;;;;5108083;28;20677;-61
2021/05/21 01:42:42;;;;;;;6.40;1.10;;;13.00;74.20;;;;;;5107981;28;20297;-60
2021/05/21 01:45:10;;;;;;;3.07;1.27;;;12.90;74.30;;;;;;5107801;28;20404;-60
2021/05/21 01:47:36;;;;;;;3.40;1.07;;;13.00;74.40;;;;;;5108009;28;20684;-60
2021/05/21 01:50:05;;;;;;;4.63;1.17;;;12.90;74.50;;;;;;5107821;28;20354;-61
2021/05/21 01:52:30;;;;;;;3.90;1.47;;;12.90;74.80;;;;;;5107618;28;20312;-61
2021/05/21 01:54:56;;;;;;;4.30;1.40;;;12.90;74.90;;;;;;5107357;28;20760;-60
2021/05/21 01:57:22;;;;;;;6.37;1.20;;;12.90;75.60;;;;;;5106665;28;20055;-60
2021/05/21 01:59:48;;;;;;;3.60;1.33;;;13.00;74.90;;;;;;5107327;28;20390;-61
2021/05/21 02:02:13;;;;;;;4.33;1.00;;;13.00;75.20;;;;;;5108027;28;20048;-61
2021/05/21 02:04:41;;;;;;;2.90;1.20;;;12.90;75.00;;;;;;5110668;28;20075;-61
2021/05/21 02:07:10;;;;;;;2.70;1.00;;;12.90;75.60;;;;;;5111106;28;20167;-61
2021/05/21 02:09:57;;;;;;;3.30;1.63;;;12.90;76.40;;;;;;5110728;28;20304;-61
2021/05/21 02:12:24;;;;;;;2.47;1.00;;;12.90;78.00;;;;;;5111007;28;20701;-61
2021/05/21 02:14:50;;;;;;;2.63;1.20;;;12.80;78.20;;;;;;5111824;28;20320;-61
2021/05/21 02:17:16;;;;;;;3.77;1.40;;;12.80;78.40;;;;;;5111344;28;20351;-61
2021/05/21 02:19:43;;;;;;;2.77;1.40;;;12.70;78.90;;;;;;5111089;28;20716;-61
2021/05/21 02:22:09;;;;;;;2.43;1.13;;;12.70;78.90;;;;;;5111318;28;20294;-61
2021/05/21 02:24:36;;;;;;;2.40;1.30;;;12.70;78.90;;;;;;5110789;28;20043;-61
2021/05/21 02:27:02;;;;;;;2.17;1.30;;;12.70;78.70;;;;;;5113318;28;20304;-64
2021/05/21 02:29:28;;;;;;;1.37;1.07;;;12.60;79.10;;;;;;5114597;28;20297;-61
2021/05/21 02:31:54;;;;;;;2.77;1.40;;;12.60;79.20;;;;;;5110889;28;20748;-61
2021/05/21 02:34:21;;;;;;;6.90;1.50;;;12.60;79.00;;;;;;5111034;28;20106;-60
2021/05/21 02:36:46;;;;;;;2.90;1.40;;;12.60;79.40;;;;;;5110850;28;20294;-61
2021/05/21 02:39:12;;;;;;;3.00;1.20;;;12.60;79.10;;;;;;5110723;28;20051;-61
2021/05/21 02:41:38;;;;;;;3.77;1.23;;;12.70;79.50;;;;;;5110812;28;20048;-61
2021/05/21 02:44:04;;;;;;;2.33;1.33;;;12.70;79.60;;;;;;5110613;28;20058;-60
2021/05/21 02:46:30;;;;;;;2.57;1.30;;;12.70;79.40;;;;;;5110267;28;20040;-60
2021/05/21 02:48:55;;;;;;;6.00;1.73;;;12.70;79.40;;;;;;5110547;28;20331;-61
2021/05/21 02:51:21;;;;;;;4.97;1.50;;;12.80;78.70;;;;;;5110601;28;20071;-61
2021/05/21 02:53:47;;;;;;;7.50;1.83;;;12.80;79.10;;;;;;5110554;28;20086;-61
2021/05/21 02:56:13;;;;;;;9.60;1.90;;;12.80;79.80;;;;;;5110438;28;20051;-61
2021/05/21 02:58:39;;;;;;;16.53;2.27;;;12.70;80.00;;;;;;5110493;28;20449;-61
2021/05/21 03:01:04;;;;;;;15.53;2.33;;;12.60;77.70;;;;;;5110953;28;20321;-61
2021/05/21 03:03:30;;;;;;;19.83;2.87;;;12.60;78.20;;;;;;5110704;28;20084;-61
2021/05/21 03:05:56;;;;;;;15.33;3.20;;;12.40;77.60;;;;;;5091575;28;20100;-61
2021/05/21 03:08:22;;;;;;;17.13;3.10;;;12.30;77.10;;;;;;5110596;28;20048;-61
2021/05/21 03:10:48;;;;;;;20.20;3.57;;;12.30;79.00;;;;;;5110266;28;20526;-61
2021/05/21 03:13:14;;;;;;;20.47;3.80;;;12.20;80.20;;;;;;5109724;28;20384;-61
2021/05/21 03:15:42;;;;;;;17.47;2.63;;;12.10;84.40;;;;;;5110170;28;20438;-61
2021/05/21 03:18:23;;;;;;;18.63;3.00;;;11.80;90.60;;;;;;5110361;28;20210;-61
2021/05/21 03:20:50;;;;;;;17.20;3.20;;;11.60;92.90;;;;;;5109579;28;20759;-61
2021/05/21 03:23:16;;;;;;;13.67;2.60;;;11.60;94.70;;;;;;5110169;28;20304;-61
2021/05/21 03:25:42;;;;;;;17.80;3.77;;;11.30;96.90;;;;;;5110021;28;20328;-61
2021/05/21 03:28:09;;;;;;;20.63;3.60;;;11.20;98.10;;;;;;5109908;28;20543;-61
2021/05/21 03:30:39;;;;;;;18.20;3.20;;;11.20;99.00;;;;;;5109238;28;20317;-62
2021/05/21 03:33:06;;;;;;;23.50;3.70;;;11.10;99.90;;;;;;5109772;28;20404;-61
2021/05/21 03:35:35;;;;;;;23.57;4.40;;;11.10;99.90;;;;;;5109287;28;20293;-61
2021/05/21 03:38:03;;;;;;;20.93;3.73;;;11.10;99.90;;;;;;5108987;28;20384;-61
2021/05/21 03:40:29;;;;;;;23.43;3.20;;;11.10;99.90;;;;;;5109551;28;20412;-62
2021/05/21 03:42:56;;;;;;;18.43;3.50;;;11.10;99.90;;;;;;5108936;28;20294;-62
2021/05/21 03:45:22;;;;;;;18.00;2.83;;;11.10;99.90;;;;;;5109153;28;20320;-61
2021/05/21 03:47:47;;;;;;;17.93;3.00;;;11.10;99.90;;;;;;5109030;28;20297;-61
2021/05/21 03:50:17;;;;;;;20.37;3.50;;;11.10;99.90;;;;;;5109010;28;20104;-61
2021/05/21 03:52:43;;;;;;;24.57;4.07;;;11.10;99.90;;;;;;5108864;28;20086;-62
2021/05/21 03:55:10;;;;;;;18.27;3.10;;;11.00;99.90;;;;;;5109144;28;20793;-62
2021/05/21 03:57:37;;;;;;;21.17;3.40;;;11.10;99.90;;;;;;5109239;28;20305;-61
2021/05/21 04:00:05;;;;;;;21.13;3.60;;;11.10;99.90;;;;;;5109290;28;20305;-61
2021/05/21 04:02:31;;;;;;;20.90;3.77;;;11.00;99.90;;;;;;5109311;28;20346;-61
2021/05/21 04:04:57;;;;;;;20.03;3.57;;;11.00;99.90;;;;;;5109042;28;20656;-61
2021/05/21 04:07:22;;;;;;;18.73;3.43;;;11.00;99.90;;;;;;5109358;28;20410;-62
2021/05/21 04:09:48;;;;;;;22.10;4.37;;;10.90;99.90;;;;;;5108412;28;20048;-61
2021/05/21 04:12:14;;;;;;;19.10;3.73;;;10.90;99.90;;;;;;5109074;28;20440;-61
2021/05/21 04:14:39;;;;;;;19.23;3.80;;;10.80;99.90;;;;;;5108499;28;20040;-61
2021/05/21 04:17:05;;;;;;;19.03;3.70;;;10.80;99.90;;;;;;5109206;28;20068;-61
2021/05/21 04:19:31;;;;;;;21.47;4.43;;;10.70;99.90;;;;;;5109023;28;20051;-61
2021/05/21 04:21:56;;;;;;;24.20;3.83;;;10.60;99.90;;;;;;5109098;28;20510;-61
2021/05/21 04:24:22;;;;;;;20.43;3.80;;;10.60;99.90;;;;;;5108492;28;20174;-61
2021/05/21 04:26:48;;;;;;;26.73;4.90;;;10.60;99.90;;;;;;5108373;28;20152;-61
2021/05/21 04:29:13;;;;;;;24.13;3.90;;;10.60;99.90;;;;;;5108723;28;20091;-60
2021/05/21 04:31:39;;;;;;;19.97;3.47;;;10.40;99.90;;;;;;5108575;28;20475;-61
2021/05/21 04:34:05;;;;;;;22.77;4.27;;;10.30;99.90;;;;;;5108697;28;20047;-61
2021/05/21 04:36:31;;;;;;;26.97;3.90;;;10.40;99.90;;;;;;5108389;28;20082;-61
2021/05/21 04:38:57;;;;;;;19.33;3.77;;;10.20;99.90;;;;;;5108586;28;20302;-62
2021/05/21 04:41:23;;;;;;;24.53;3.97;;;10.20;99.90;;;;;;5089608;28;20198;-61
2021/05/21 04:43:50;;;;;;;22.30;3.37;;;10.10;99.90;;;;;;5108311;28;20054;-60
2021/05/21 04:46:16;;;;;;;20.13;3.30;;;10.10;99.90;;;;;;5112215;28;20074;-60
2021/05/21 04:48:42;;;;;;;18.60;3.60;;;10.20;99.90;;;;;;5110578;28;20691;-61
2021/05/21 04:51:07;;;;;;;24.53;3.83;;;10.30;99.90;;;;;;5110018;28;20067;-61
2021/05/21 04:53:33;;;;;;;22.20;3.97;;;10.40;99.90;;;;;;5111447;28;20112;-61
2021/05/21 04:55:59;;;;;;;19.47;3.80;;;10.60;99.90;;;;;;5112961;28;20073;-63
2021/05/21 04:58:24;;;;;;;24.33;3.87;;;10.70;99.90;;;;;;5112587;28;20054;-61
2021/05/21 05:00:50;;;;;;;19.40;3.97;;;10.80;99.90;;;;;;5109277;28;20126;-62
2021/05/21 05:03:17;;;;;;;25.90;4.20;;;10.80;99.90;;;;;;5089968;28;20044;-62
2021/05/21 05:05:44;;;;;;;19.90;3.30;;;11.00;99.90;;;;;;5108358;28;20040;-62
2021/05/21 05:08:14;;;;;;;21.10;3.20;;;11.10;99.90;;;;;;5108790;28;20293;-60
2021/05/21 05:10:39;;;;;;;20.20;3.90;;;11.30;99.90;;;;;;5104531;28;20299;-61
2021/05/21 05:13:05;;;;;;;21.10;3.93;;;11.50;99.90;;;;;;5087784;28;21087;-61
2021/05/21 05:15:35;;;;;;;19.23;3.87;;;11.60;99.90;;;;;;5105870;28;20084;-60
2021/05/21 05:18:02;;;;;;;17.70;3.47;;;11.70;99.90;;;;;;5109057;28;21008;-62
2021/05/21 05:20:28;;;;;;;18.40;3.63;;;11.90;99.90;;;;;;5110105;28;20293;-61
2021/05/21 05:22:55;;;;;;;18.27;3.77;;;12.00;99.90;;;;;;5108611;28;20697;-61
2021/05/21 05:25:21;;;;;;;21.10;3.70;;;12.10;99.90;;;;;;5108700;28;20309;-61
2021/05/21 05:27:49;;;;;;;23.70;4.03;;;12.30;99.90;;;;;;5090317;28;20324;-61
2021/05/21 05:30:15;;;;;;;20.80;4.00;;;12.50;99.90;;;;;;5108491;28;20294;-62
2021/05/21 05:32:41;;;;;;;21.57;4.23;;;12.50;99.90;;;;;;5108537;28;20312;-61
2021/05/21 05:35:07;;;;;;;22.40;3.37;;;12.60;98.60;;;;;;5108169;28;20287;-61
2021/05/21 05:37:34;;;;;;;20.20;3.93;;;12.50;96.00;;;;;;5109523;28;20048;-61
2021/05/21 05:40:00;;;;;;;20.47;3.70;;;12.70;98.60;;;;;;5112194;28;20304;-61
2021/05/21 05:42:25;;;;;;;27.53;4.40;;;12.80;97.60;;;;;;5112247;28;20058;-61
2021/05/21 05:44:52;;;;;;;22.40;3.63;;;12.90;95.70;;;;;;5111674;28;20401;-61
2021/05/21 05:47:17;;;;;;;20.80;4.00;;;13.10;95.80;;;;;;5112896;28;20486;-61
2021/05/21 05:49:46;;;;;;;22.37;4.00;;;12.90;94.60;;;;;;5112127;28;20802;-61
2021/05/21 05:52:12;;;;;;;21.33;4.50;;;13.10;94.70;;;;;;5112285;28;20293;-61
2021/05/21 05:54:38;;;;;;;26.03;4.60;;;13.20;95.20;;;;;;5112637;28;20131;-66
2021/05/21 05:57:04;;;;;;;21.50;4.03;;;13.20;92.40;;;;;;5119718;28;20035;-61
2021/05/21 05:59:30;;;;;;;24.93;3.83;;;13.60;91.70;;;;;;5116235;28;20054;-61
2021/05/21 06:01:56;;;;;;;18.50;3.50;;;13.60;92.30;;;;;;5112225;28;20139;-62
2021/05/21 06:04:22;;;;;;;26.43;4.70;;;13.60;90.30;;;;;;5111577;28;20383;-61
2021/05/21 06:06:48;;;;;;;18.30;3.80;;;13.60;90.20;;;;;;5111002;28;20040;-60
2021/05/21 06:09:14;;;;;;;20.30;4.20;;;13.70;90.60;;;;;;5111401;28;20131;-61
2021/05/21 06:11:40;;;;;;;14.00;3.20;;;13.70;88.20;;;;;;5111513;28;20109;-61
2021/05/21 06:14:06;;;;;;;22.13;3.90;;;13.70;88.00;;;;;;5111824;28;20059;-62
2021/05/21 06:16:31;;;;;;;19.73;4.40;;;13.80;85.60;;;;;;5112037;28;20468;-61
2021/05/21 06:18:58;;;;;;;18.97;3.97;;;13.80;85.20;;;;;;5111408;28;20093;-62
2021/05/21 06:21:23;;;;;;;17.43;3.40;;;13.90;83.80;;;;;;5111707;28;20058;-59
2021/05/21 06:23:49;;;;;;;15.80;3.70;;;14.10;82.90;;;;;;5111919;28;20138;-60
2021/05/21 06:28:41;;;;;;;18.30;3.47;;;14.00;80.50;;;;;;5110498;28;20104;-60
2021/05/21 06:31:08;;;;;;;16.53;3.60;;;14.10;80.10;;;;;;5109886;28;20105;-61
2021/05/21 06:33:34;;;;;;;19.17;3.73;;;14.20;80.10;;;;;;5110609;28;20104;-60
2021/05/21 06:36:00;;;;;;;17.67;3.83;;;14.30;80.30;;;;;;5110403;28;20052;-60
2021/05/21 06:38:26;;;;;;;23.07;4.13;;;14.40;79.30;;;;;;5110380;28;20116;-60
2021/05/21 06:40:53;;;;;;;18.60;4.30;;;14.10;76.10;;;;;;5111018;28;20047;-60
2021/05/21 06:43:22;;;;;;;20.03;4.17;;;14.20;78.30;;;;;;5111101;28;20040;-60
2021/05/21 06:45:49;;;;;;;19.43;3.80;;;14.20;78.60;;;;;;5110344;28;20185;-60
2021/05/21 06:48:15;;;;;;;20.57;4.20;;;14.40;78.00;;;;;;5109292;28;20083;-60
2021/05/21 06:50:42;;;;;;;20.27;4.20;;;14.30;76.00;;;;;;5110028;28;20067;-60
2021/05/21 06:53:08;;;;;;;18.60;3.70;;;14.30;75.30;;;;;;5110637;28;20360;-61
2021/05/21 06:55:35;;;;;;;16.30;3.60;;;14.30;76.10;;;;;;5110577;28;20332;-60
2021/05/21 06:58:00;;;;;;;19.50;4.13;;;14.30;75.80;;;;;;5110422;28;20713;-59
2021/05/21 07:00:26;;;;;;;17.37;3.40;;;14.20;74.90;;;;;;5110738;28;20384;-60
2021/05/21 07:02:52;;;;;;;19.73;3.53;;;14.20;74.60;;;;;;5111393;28;20504;-62
2021/05/21 07:05:18;;;;;;;24.73;4.13;;;14.30;77.00;;;;;;5110932;28;20510;-61
2021/05/21 07:07:45;;;;;;;17.97;3.70;;;14.40;75.30;;;;;;5110631;28;20471;-61
2021/05/21 07:10:11;;;;;;;17.20;3.93;;;14.60;75.00;;;;;;5108969;28;20127;-61
2021/05/21 07:12:37;;;;;;;17.30;3.80;;;14.50;71.90;;;;;;5107898;28;20336;-61
2021/05/21 07:15:06;;;;;;;17.97;3.53;;;14.40;71.20;;;;;;5109180;28;20304;-61
2021/05/21 07:17:32;;;;;;;19.00;3.50;;;14.50;70.10;;;;;;5111554;28;20040;-64
2021/05/21 07:19:58;;;;;;;12.67;3.43;;;14.50;70.30;;;;;;5090942;28;20434;-61
2021/05/21 07:22:24;;;;;;;16.13;3.40;;;14.60;69.10;;;;;;5107429;28;20376;-60
2021/05/21 07:24:50;;;;;;;20.00;3.77;;;14.60;68.40;;;;;;5107905;28;20272;-60
2021/05/21 07:27:16;;;;;;;19.20;3.83;;;14.60;68.20;;;;;;5107963;28;20040;-59
2021/05/21 07:29:42;;;;;;;20.00;4.03;;;14.80;68.00;;;;;;5107630;28;20099;-62
2021/05/21 07:32:09;;;;;;;20.60;3.07;;;15.10;67.70;;;;;;5107173;28;20220;-62
2021/05/21 07:34:34;;;;;;;14.17;2.83;;;15.10;66.50;;;;;;5107882;28;20164;-62
2021/05/21 07:37:00;;;;;;;15.97;3.77;;;15.20;67.00;;;;;;5107730;28;20377;-62
2021/05/21 07:39:27;;;;;;;17.03;3.50;;;15.00;65.50;;;;;;5107462;28;20426;-61
2021/05/21 07:41:54;;;;;;;13.67;3.50;;;15.10;65.20;;;;;;5107025;28;20636;-61
2021/05/21 07:44:21;;;;;;;15.70;3.40;;;15.10;64.70;;;;;;5107827;28;20077;-63
2021/05/21 07:46:47;;;;;;;17.53;3.30;;;15.20;63.30;;;;;;5107451;28;20342;-61
2021/05/21 07:49:14;;;;;;;13.50;2.70;;;15.40;62.60;;;;;;5106816;28;20297;-61
2021/05/21 07:51:40;;;;;;;17.30;3.27;;;15.60;61.80;;;;;;5107243;28;20138;-61
2021/05/21 07:54:06;;;;;;;13.80;3.13;;;15.60;61.40;;;;;;5107187;28;20305;-61
2021/05/21 07:56:31;;;;;;;16.20;3.03;;;15.50;60.90;;;;;;5106940;28;20638;-61
2021/05/21 07:58:57;;;;;;;14.50;3.20;;;15.50;60.40;;;;;;5106472;28;20501;-61
2021/05/21 08:01:23;;;;;;;18.80;3.33;;;15.40;60.00;;;;;;5106215;28;20040;-61
2021/05/21 08:03:49;;;;;;;11.97;2.37;;;15.20;59.00;;;;;;5106938;28;20035;-61
2021/05/21 08:06:15;;;;;;;13.87;2.70;;;15.00;60.00;;;;;;5106813;28;20405;-61
2021/05/21 08:08:41;;;;;;;14.43;2.47;;;15.50;60.80;;;;;;5107968;28;20075;-60
2021/05/21 08:11:06;;;;;;;9.90;1.87;;;15.90;57.90;;;;;;5108780;28;20324;-59
2021/05/21 08:13:32;;;;;;;12.83;2.47;;;15.80;56.90;;;;;;5109075;28;20047;-59
2021/05/21 08:15:58;;;;;;;14.60;2.80;;;15.80;56.20;;;;;;5109277;28;20051;-57
2021/05/21 08:18:24;;;;;;;13.40;2.37;;;16.00;56.00;;;;;;5108694;28;20068;-58
2021/05/21 08:20:50;;;;;;;11.13;2.10;;;16.20;56.70;;;;;;5109593;28;20047;-68
2021/05/21 08:23:17;;;;;;;11.70;1.90;;;16.40;54.60;;;;;;5108964;28;20062;-60
2021/05/21 08:25:43;;;;;;;11.10;1.97;;;16.10;54.40;;;;;;5107834;28;20513;-60
2021/05/21 08:28:09;;;;;;;16.43;2.17;;;16.20;55.70;;;;;;5108134;28;20044;-60
2021/05/21 08:30:35;;;;;;;9.60;2.20;;;16.10;54.30;;;;;;5108494;28;20071;-61
2021/05/21 08:33:01;;;;;;;12.60;2.20;;;16.00;55.60;;;;;;5108522;28;20424;-61
2021/05/21 08:35:27;;;;;;;13.10;2.50;;;15.90;54.20;;;;;;5108293;28;20466;-61
2021/05/21 08:37:53;;;;;;;10.77;2.57;;;15.90;54.70;;;;;;5108852;28;20469;-60
2021/05/21 08:40:24;;;;;;;10.03;2.40;;;15.80;54.00;;;;;;5110115;28;20402;-62
2021/05/21 08:42:57;;;;;;;14.50;2.93;;;15.80;53.00;;;;;;5110536;28;20890;-60
2021/05/21 08:45:25;;;;;;;11.73;2.80;;;15.80;52.00;;;;;;5110176;28;20324;-61
2021/05/21 08:47:51;;;;;;;12.20;2.70;;;15.90;52.40;;;;;;5110329;28;20303;-62
2021/05/21 08:50:17;;;;;;;14.43;2.80;;;16.10;52.80;;;;;;5110564;28;20943;-61
2021/05/21 08:52:43;;;;;;;11.10;2.57;;;16.30;52.70;;;;;;5110699;28;20597;-61
2021/05/21 08:55:09;;;;;;;10.60;2.50;;;16.40;50.40;;;;;;5110199;28;20297;-61
2021/05/21 08:57:35;;;;;;;8.70;2.50;;;16.60;50.70;;;;;;5113089;28;20051;-65
2021/05/21 09:00:02;;;;;;;14.53;2.60;;;16.60;51.60;;;;;;5111066;28;20293;-61
2021/05/21 09:02:29;;;;;;;14.43;2.50;;;16.50;50.80;;;;;;5114677;28;20043;-59
2021/05/21 09:04:58;;;;;;;10.50;2.23;;;16.40;50.70;;;;;;5112304;28;20344;-59
2021/05/21 09:07:35;;;;;;;11.73;2.27;;;16.60;51.90;;;;;;5111999;28;20475;-59
2021/05/21 09:10:19;;;;;;;10.33;2.00;;;16.70;52.50;;;;;;5095610;28;20715;-59
2021/05/21 09:12:49;;;;;;;8.07;2.30;;;16.50;51.70;;;;;;5113602;28;20063;-58
2021/05/21 09:15:19;;;;;;;25.23;2.93;;;16.60;52.40;;;;;;5113105;28;20073;-59
2021/05/21 09:17:59;;;;;;;10.10;2.10;;;16.70;52.90;;;;;;5113531;28;20046;-58
2021/05/21 09:20:31;;;;;;;11.43;2.10;;;16.10;51.80;;;;;;5110383;28;20052;-61
2021/05/21 09:23:17;;;;;;;13.37;2.33;;;16.20;53.30;;;;;;5110092;28;20069;-59
2021/05/21 09:25:51;;;;;;;26.83;9.20;;;16.30;53.00;;;;;;5110383;28;20491;-60
2021/05/21 09:28:40;;;;;;;11.18;3.58;;;16.40;53.00;;;;;;5093152;28;20047;-59
2021/05/21 09:31:13;;;;;;;14.80;2.70;;;16.40;52.40;;;;;;5110052;28;20055;-59
2021/05/21 09:33:45;;;;;;;14.18;2.40;;;16.50;53.00;;;;;;5110577;28;20135;-59
2021/05/21 09:36:12;;;;;;;12.20;2.50;;;16.60;53.60;;;;;;5110712;28;20419;-59
2021/05/21 09:38:50;;;;;;;16.70;3.00;;;16.60;53.20;;;;;;5111508;28;20135;-60
2021/05/21 09:41:17;;;;;;;10.67;2.60;;;16.50;52.40;;;;;;5109941;28;20407;-66
2021/05/21 09:44:03;;;;;;;13.93;2.30;;;16.30;54.00;;;;;;5110577;28;20147;-58
2021/05/21 09:46:43;;;;;;;14.93;2.90;;;16.00;56.90;;;;;;5109648;28;20105;-59
2021/05/21 09:49:35;;;;;;;13.63;3.17;;;15.70;66.60;;;;;;5110168;28;20048;-60
2021/05/21 09:52:03;;;;;;;13.80;2.60;;;15.60;65.10;;;;;;5110572;28;20098;-61
2021/05/21 09:54:52;;;;;;;14.47;3.00;;;15.40;63.00;;;;;;5110808;28;20040;-61
2021/05/21 09:57:29;;;;;;;10.83;2.73;;;15.30;64.10;;;;;;5111489;28;20044;-61
2021/05/21 09:59:55;;;;;;;16.33;3.13;;;14.80;68.10;;;;;;5109725;28;20658;-61
2021/05/21 10:02:30;;;;;;;12.73;2.60;;;13.90;76.80;;;;;;5114494;28;20304;-60
2021/05/21 10:04:57;;;;;;;12.33;2.67;;;13.50;82.00;;;;;;5108667;28;20043;-61
2021/05/21 10:07:24;;;;;;;12.43;3.17;;;13.40;86.40;;;;;;5109946;28;20397;-60
2021/05/21 10:09:50;;;;;;;9.37;2.40;;;13.40;83.90;;;;;;5108310;28;20297;-60
2021/05/21 10:12:16;;;;;;;9.43;2.13;;;13.70;87.60;;;;;;5109080;28;20408;-64
2021/05/21 10:14:48;;;;;;;10.33;2.37;;;13.90;86.40;;;;;;5109489;28;20710;-61
2021/05/21 10:17:25;;;;;;;11.40;2.10;;;14.30;86.20;;;;;;5107865;28;20055;-60
2021/05/21 10:19:53;;;;;;;12.23;2.80;;;14.40;80.80;;;;;;5108003;28;20296;-61
2021/05/21 10:22:35;;;;;;;11.63;2.20;;;14.60;79.30;;;;;;5108309;28;20753;-61
2021/05/21 10:25:24;;;;;;;10.63;2.77;;;14.70;78.20;;;;;;5111615;28;20316;-61
2021/05/21 10:27:55;;;;;;;12.07;2.30;;;14.70;78.90;;;;;;5098050;28;20305;-61
2021/05/21 10:30:25;;;;;;;12.73;2.67;;;14.70;74.40;;;;;;5111749;28;20376;-60
2021/05/21 10:33:16;;;;;;;12.53;2.30;;;14.70;72.70;;;;;;5111984;28;20353;-61
2021/05/21 10:35:42;;;;;;;11.30;2.43;;;14.50;78.10;;;;;;5110467;28;20312;-62
2021/05/21 10:38:37;;;;;;;14.40;2.33;;;14.30;74.30;;;;;;5093471;28;20297;-61
2021/05/21 10:41:18;;;;;;;9.67;2.47;;;14.70;76.50;;;;;;5090115;28;20337;-62
2021/05/21 10:43:52;;;;;;;9.23;2.60;;;15.20;71.20;;;;;;5111263;28;20300;-61
2021/05/21 10:46:20;;;;;;;9.57;2.03;;;15.40;69.60;;;;;;5111465;28;20340;-61
2021/05/21 10:49:04;;;;;;;8.97;2.00;;;15.60;66.00;;;;;;5111959;28;20048;-61
2021/05/21 10:51:53;;;;;;;6.03;1.90;;;15.50;63.10;;;;;;5111623;28;20312;-62
2021/05/21 10:54:40;;;;;;;19.67;2.80;;;15.50;62.80;;;;;;5113915;28;20393;-61
2021/05/21 10:57:19;;;;;;;11.13;2.10;;;14.50;89.70;;;;;;5113325;28;20636;-63
2021/05/21 10:59:51;;;;;;;11.83;2.27;;;14.00;86.20;;;;;;5131490;28;20376;-63
2021/05/21 11:02:18;;;;;;;10.83;2.30;;;13.80;87.50;;;;;;5135940;28;20285;-64
2021/05/21 11:04:44;;;;;;;8.90;2.30;;;13.80;87.70;;;;;;5135235;28;20458;-61
2021/05/21 11:07:11;;;;;;;13.07;2.53;;;13.90;84.60;;;;;;5125617;28;20293;-61
2021/05/21 11:09:45;;;;;;;12.87;2.87;;;14.00;84.40;;;;;;5112297;28;20086;-59
2021/05/21 11:12:16;;;;;;;11.75;2.72;;;14.10;85.40;;;;;;5093242;28;20340;-59
2021/05/21 11:14:49;;;;;;;11.70;2.67;;;14.30;86.20;;;;;;5110956;28;20142;-59
2021/05/21 11:17:27;;;;;;;12.10;2.38;;;14.40;88.00;;;;;;5111428;28;20388;-59
2021/05/21 11:19:54;;;;;;;12.00;2.63;;;14.40;80.00;;;;;;5113315;28;20451;-58
2021/05/21 11:22:27;;;;;;;16.53;3.03;;;14.60;80.20;;;;;;5114549;28;20376;-57
2021/05/21 11:25:15;;;;;;;12.40;2.73;;;15.00;80.00;;;;;;5114554;28;20316;-58
2021/05/21 11:27:41;;;;;;;11.70;2.47;;;15.40;77.20;;;;;;5113627;28;20297;-58
2021/05/21 11:30:10;;;;;;;12.47;2.80;;;15.70;72.50;;;;;;5114743;28;20302;-57
2021/05/21 11:32:40;;;;;;;10.00;2.33;;;15.60;69.40;;;;;;5111511;28;20308;-58
2021/05/21 11:35:09;;;;;;;10.23;2.30;;;15.40;66.00;;;;;;5109063;28;20637;-59
2021/05/21 11:37:35;;;;;;;10.07;2.20;;;15.50;62.30;;;;;;5110501;28;20289;-59
2021/05/21 11:40:03;;;;;;;8.77;2.43;;;15.70;63.20;;;;;;5110295;28;20298;-59
2021/05/21 11:42:30;;;;;;;11.17;2.23;;;16.10;63.40;;;;;;5109739;28;20301;-59
2021/05/21 11:44:57;;;;;;;8.47;2.40;;;16.00;61.20;;;;;;5110874;28;20305;-64
2021/05/21 11:47:26;;;;;;;12.77;2.43;;;16.10;61.00;;;;;;5112433;28;20297;-65
2021/05/21 11:49:54;;;;;;;10.27;2.30;;;16.20;60.70;;;;;;5111397;28;20354;-64
2021/05/21 11:52:20;;;;;;;11.53;2.43;;;16.30;59.60;;;;;;5111456;28;20749;-65
2021/05/21 11:54:46;;;;;;;13.13;3.17;;;16.50;59.00;;;;;;5118016;28;20313;-64
2021/05/21 11:57:19;;;;;;;14.50;3.27;;;16.60;58.10;;;;;;5126669;28;20780;-65
2021/05/21 11:59:49;;;;;;;10.48;2.90;;;16.50;58.20;;;;;;5122742;28;20043;-63
2021/05/21 12:02:16;;;;;;;16.90;3.07;;;16.50;58.30;;;;;;5117829;28;20039;-64
2021/05/21 12:04:46;;;;;;;16.07;2.17;;;16.40;59.00;;;;;;5116475;28;20309;-60
2021/05/21 12:07:23;;;;;;;11.63;1.80;;;15.60;64.40;;;;;;5110879;28;20652;-62
2021/05/21 12:09:55;;;;;;;7.70;1.40;;;14.30;75.00;;;;;;5110968;28;20043;-61
2021/05/21 12:12:23;;;;;;;5.63;1.30;;;13.60;79.60;;;;;;5111017;28;20301;-62
2021/05/21 12:14:49;;;;;;;9.07;1.80;;;13.40;78.60;;;;;;5111392;28;20297;-60
2021/05/21 12:17:15;;;;;;;6.07;1.27;;;13.80;80.90;;;;;;5111010;28;20645;-61
2021/05/21 12:19:42;;;;;;;7.03;1.30;;;14.00;78.00;;;;;;5093883;28;20047;-65
2021/05/21 12:22:08;;;;;;;5.37;1.53;;;14.20;77.40;;;;;;5098273;28;20044;-63
2021/05/21 12:24:40;;;;;;;6.70;1.50;;;14.40;76.50;;;;;;5121693;28;20293;-63
2021/05/21 12:27:06;;;;;;;5.90;1.60;;;14.60;76.70;;;;;;5112245;28;20052;-68
2021/05/21 12:29:32;;;;;;;7.10;1.60;;;14.70;74.00;;;;;;5110826;28;20967;-57
2021/05/21 12:32:00;;;;;;;5.40;1.80;;;14.80;72.40;;;;;;5109528;28;20047;-58
2021/05/21 12:34:28;;;;;;;8.07;2.10;;;15.00;72.70;;;;;;5109591;28;20044;-57
2021/05/21 12:36:59;;;;;;;8.40;2.30;;;15.10;71.40;;;;;;5109888;28;20839;-57
2021/05/21 12:39:32;;;;;;;8.77;2.03;;;15.30;66.70;;;;;;5109606;28;20304;-56
2021/05/21 12:41:59;;;;;;;9.27;2.73;;;15.50;66.90;;;;;;5110064;28;20306;-57
2021/05/21 12:44:24;;;;;;;8.80;2.10;;;15.60;67.50;;;;;;5113098;28;20346;-58
2021/05/21 12:47:00;;;;;;;9.57;2.57;;;15.70;65.00;;;;;;5107286;28;20317;-58
2021/05/21 12:49:34;;;;;;;10.30;2.40;;;15.90;65.90;;;;;;5108867;28;20296;-61